Hartford, Ohio
Current Conditions -  °F | °C
As of 11:51 AM on Thursday 18 Dec 2014 (Local Time) from KYNG Reporting Station
Light Snow Light Snow  
Wind Chill: 17°   Ceiling: 1200
Heat Index: 28°   Visibility: 4mi
Dew Point: 24°   Wind: 13mph
Humidity: 85%   Direction: 250°WSW
Pressure: 30.16"   Gusts: NA
Location:  41.31°N, 80.57°W
Report Text: KYNG 181651Z 25011KT 4SM -SN OVC012 M02/M04 A3016 RMK AO2 SLP228 P0001 T10221044
Loading
Personal Weather Stations






























Interactive Weather Map New forecast layout! Learn more

10-Day Weather Forecast

Advertisements
Track Severe Weather on mobile